Time;durP1;ratioP1;P1;durP2;ratioP2;P2;SDS_P1;SDS_P2;PMS_P1;PMS_P2;Temp;Humidity;BMP_temperature;BMP_pressure;BME280_temperature;BME280_humidity;BME280_pressure;Samples;Min_cycle;Max_cycle;Signal;HPM_P1;HPM_P2
2022/08/28 00:01:39;;;;;;;7.07;3.53;;;16.10;99.90;;;;;;4930405;29;20859;-75
2022/08/28 00:04:54;;;;;;;9.70;4.20;;;16.00;99.90;;;;;;4923567;29;20542;-75
2022/08/28 00:08:02;;;;;;;9.33;4.40;;;16.00;99.90;;;;;;4916464;29;20465;-75
2022/08/28 00:11:04;;;;;;;8.13;4.03;;;16.00;99.90;;;;;;4924159;29;20471;-75
2022/08/28 00:14:34;;;;;;;7.73;3.50;;;16.00;99.90;;;;;;4923090;28;20498;-75
2022/08/28 00:17:43;;;;;;;10.07;3.57;;;16.00;99.90;;;;;;4923200;29;20828;-75
2022/08/28 00:20:40;;;;;;;7.40;4.80;;;16.00;99.90;;;;;;4922113;29;20459;-76
2022/08/28 00:23:44;;;;;;;;;;;;;;;;;;;;;
2022/08/28 00:30:01;;;;;;;5.10;3.03;;;15.90;99.90;;;;;;4922135;29;20547;-75
2022/08/28 00:33:21;;;;;;;;;;;;;;;;;;;;;
2022/08/28 00:36:29;;;;;;;11.37;4.30;;;15.90;99.90;;;;;;4926499;28;20476;-75
2022/08/28 00:39:23;;;;;;;7.73;3.63;;;15.90;99.90;;;;;;4920699;29;20532;-75
2022/08/28 00:42:16;;;;;;;8.13;4.00;;;15.80;99.90;;;;;;4918348;29;20535;-75
2022/08/28 00:45:14;;;;;;;6.20;3.20;;;15.80;99.90;;;;;;4920812;29;20455;-75
2022/08/28 00:48:13;;;;;;;10.67;4.20;;;15.80;99.90;;;;;;4919920;29;21851;-75
2022/08/28 00:54:48;;;;;;;6.77;3.60;;;15.80;99.90;;;;;;4919148;28;20482;-75
2022/08/28 00:57:57;;;;;;;11.20;4.40;;;15.70;99.90;;;;;;4922419;29;20463;-75
2022/08/28 01:01:03;;;;;;;8.57;3.80;;;15.70;99.90;;;;;;4923281;29;20451;-76
2022/08/28 01:04:10;;;;;;;10.87;4.97;;;15.70;99.90;;;;;;4923236;28;20457;-75
2022/08/28 01:07:22;;;;;;;6.47;3.57;;;15.60;99.90;;;;;;4928013;29;20578;-75
2022/08/28 01:14:23;;;;;;;8.67;3.83;;;15.60;99.90;;;;;;4934122;29;20479;-75
2022/08/28 01:17:38;;;;;;;7.57;3.57;;;15.60;99.90;;;;;;4930808;29;20472;-75
2022/08/28 01:20:38;;;;;;;10.13;3.80;;;15.60;99.90;;;;;;4933314;28;20448;-75
2022/08/28 01:24:02;;;;;;;6.50;3.37;;;15.60;99.90;;;;;;4933750;29;20448;-75
2022/08/28 01:30:45;;;;;;;10.13;4.40;;;15.50;99.90;;;;;;4930558;28;20462;-75
2022/08/28 01:37:30;;;;;;;10.57;4.20;;;15.50;99.90;;;;;;4929664;29;20554;-75
2022/08/28 01:40:38;;;;;;;6.17;3.77;;;15.50;99.90;;;;;;4924715;29;20551;-75
2022/08/28 01:43:52;;;;;;;8.43;3.80;;;15.40;99.90;;;;;;4922379;29;20467;-75
2022/08/28 01:46:56;;;;;;;8.60;3.77;;;15.40;99.90;;;;;;4926776;29;20486;-75
2022/08/28 01:49:58;;;;;;;7.70;3.70;;;15.40;99.90;;;;;;4929303;28;20460;-75
2022/08/28 01:53:01;;;;;;;9.53;4.00;;;15.40;99.90;;;;;;4926367;29;20459;-75
2022/08/28 01:56:26;;;;;;;6.60;3.77;;;15.40;99.90;;;;;;4925436;28;20524;-75
2022/08/28 01:59:24;;;;;;;10.33;4.30;;;15.40;99.90;;;;;;4928047;28;20458;-75
2022/08/28 02:05:48;;;;;;;8.77;3.83;;;15.40;99.90;;;;;;4927831;29;20583;-75
2022/08/28 02:12:31;;;;;;;8.07;4.30;;;15.30;99.90;;;;;;4924229;29;20535;-75
2022/08/28 02:15:44;;;;;;;7.80;3.90;;;15.30;99.90;;;;;;4929350;29;20480;-75
2022/08/28 02:19:00;;;;;;;7.10;3.80;;;15.30;99.90;;;;;;4930288;29;20464;-74
2022/08/28 02:22:07;;;;;;;7.47;3.90;;;15.30;99.90;;;;;;4929998;29;20952;-74
2022/08/28 02:25:47;;;;;;;9.40;3.80;;;15.30;99.90;;;;;;4925167;29;20480;-74
2022/08/28 02:29:26;;;;;;;9.17;3.90;;;15.30;99.90;;;;;;4930650;29;20452;-74
2022/08/28 02:35:52;;;;;;;10.43;3.90;;;15.20;99.90;;;;;;4923387;29;20623;-74
2022/08/28 02:39:00;;;;;;;8.80;3.93;;;15.20;99.90;;;;;;4930970;29;21142;-74
2022/08/28 02:42:22;;;;;;;8.10;4.20;;;15.10;99.90;;;;;;4927119;29;20492;-74
2022/08/28 02:45:26;;;;;;;4.70;3.23;;;15.20;99.90;;;;;;4925851;29;20476;-74
2022/08/28 02:51:57;;;;;;;7.40;3.67;;;15.10;99.90;;;;;;4925410;29;20452;-74
2022/08/28 02:55:29;;;;;;;;;;;;;;;;;;;;;
2022/08/28 02:58:54;;;;;;;6.17;3.53;;;15.00;99.90;;;;;;4929811;28;20551;-74
2022/08/28 03:01:47;;;;;;;8.63;3.93;;;15.00;99.90;;;;;;4884972;29;20454;-73
2022/08/28 03:04:45;;;;;;;14.20;3.97;;;15.00;99.90;;;;;;4925066;29;20492;-74
2022/08/28 03:07:39;;;;;;;10.20;3.97;;;15.00;99.90;;;;;;4928269;28;20456;-74
2022/08/28 03:10:46;;;;;;;8.97;4.27;;;15.00;99.90;;;;;;4926262;29;20495;-74
2022/08/28 03:13:47;;;;;;;;;;;;;;;;;;;;;
2022/08/28 03:16:57;;;;;;;6.20;3.60;;;14.90;99.90;;;;;;4932477;29;20470;-74
2022/08/28 03:19:59;;;;;;;10.10;4.27;;;14.90;99.90;;;;;;4933002;28;21101;-74
2022/08/28 03:26:22;;;;;;;8.47;3.50;;;14.90;99.90;;;;;;4890502;29;21053;-74
2022/08/28 03:29:39;;;;;;;7.00;3.40;;;14.90;99.90;;;;;;4889209;29;20582;-74
2022/08/28 03:32:39;;;;;;;9.43;3.17;;;14.80;99.90;;;;;;4928131;29;20616;-74
2022/08/28 03:35:54;;;;;;;8.27;3.77;;;14.80;99.90;;;;;;4930515;28;20666;-74
2022/08/28 03:39:08;;;;;;;12.03;4.20;;;14.80;99.90;;;;;;4931696;28;20466;-74
2022/08/28 03:42:08;;;;;;;8.83;3.47;;;14.80;99.90;;;;;;4928116;28;21067;-74
2022/08/28 03:45:25;;;;;;;8.93;3.60;;;14.80;99.90;;;;;;4922348;28;20448;-74
2022/08/28 03:48:41;;;;;;;7.90;3.43;;;14.80;99.90;;;;;;4926668;29;20539;-74
2022/08/28 03:51:43;;;;;;;13.03;3.57;;;14.70;99.90;;;;;;4929985;29;20460;-74
2022/08/28 03:55:02;;;;;;;;;;;;;;;;;;;;;
2022/08/28 03:58:21;;;;;;;7.20;3.73;;;14.80;99.90;;;;;;4927688;29;20478;-74
2022/08/28 04:01:20;;;;;;;7.33;3.40;;;14.70;99.90;;;;;;4923808;29;20522;-74
2022/08/28 04:04:29;;;;;;;7.73;3.87;;;14.70;99.90;;;;;;4921073;29;20615;-74
2022/08/28 04:07:33;;;;;;;5.43;3.50;;;14.70;99.90;;;;;;4922735;29;20460;-74
2022/08/28 04:10:44;;;;;;;;;;;;;;;;;;;;;
2022/08/28 04:13:42;;;;;;;7.17;3.30;;;14.70;99.90;;;;;;4924254;28;20460;-74
2022/08/28 04:17:05;;;;;;;9.47;3.90;;;14.70;99.90;;;;;;4926813;29;20476;-74
2022/08/28 04:20:17;;;;;;;10.00;3.80;;;14.60;99.90;;;;;;4923130;29;20475;-74
2022/08/28 04:23:19;;;;;;;9.27;3.77;;;14.60;99.90;;;;;;4922282;29;21225;-74
2022/08/28 04:26:35;;;;;;;8.83;3.80;;;14.60;99.90;;;;;;4923911;28;20655;-74
2022/08/28 04:29:56;;;;;;;8.47;3.50;;;14.60;99.90;;;;;;4923147;29;20467;-74
2022/08/28 04:32:53;;;;;;;7.03;3.47;;;14.60;99.90;;;;;;4925425;29;20463;-74
2022/08/28 04:35:42;;;;;;;7.23;3.23;;;14.60;99.90;;;;;;4926018;28;21041;-74
2022/08/28 04:41:49;;;;;;;6.03;3.23;;;14.50;99.90;;;;;;4922816;29;20546;-74
2022/08/28 04:44:46;;;;;;;9.80;4.17;;;14.50;99.90;;;;;;4922331;29;20543;-74
2022/08/28 04:47:43;;;;;;;6.73;3.87;;;14.50;99.90;;;;;;4922078;29;20453;-74
2022/08/28 04:51:07;;;;;;;7.67;3.30;;;14.50;99.90;;;;;;4920372;29;20502;-74
2022/08/28 04:54:16;;;;;;;6.93;4.00;;;14.50;99.90;;;;;;4920451;29;20476;-74
2022/08/28 04:57:24;;;;;;;8.23;3.40;;;14.50;99.90;;;;;;4923950;28;20481;-74
2022/08/28 05:00:38;;;;;;;9.40;3.70;;;14.50;99.90;;;;;;4921430;29;20535;-74
2022/08/28 05:03:43;;;;;;;8.07;3.43;;;14.50;99.90;;;;;;4922260;28;20476;-74
2022/08/28 05:06:58;;;;;;;4.93;3.70;;;14.50;99.90;;;;;;4924397;29;20849;-74
2022/08/28 05:10:10;;;;;;;6.10;4.10;;;14.50;99.90;;;;;;4915605;29;20451;-74
2022/08/28 05:13:10;;;;;;;9.37;3.53;;;14.50;99.90;;;;;;4926536;29;20452;-74
2022/08/28 05:16:03;;;;;;;5.97;3.60;;;14.60;99.90;;;;;;4929296;29;20479;-74
2022/08/28 05:19:09;;;;;;;8.17;3.57;;;14.60;99.90;;;;;;4929436;29;20830;-74
2022/08/28 05:22:09;;;;;;;6.40;3.07;;;14.60;99.90;;;;;;4927365;29;20941;-74
2022/08/28 05:25:09;;;;;;;8.03;3.53;;;14.60;99.90;;;;;;4929821;29;20456;-74
2022/08/28 05:28:01;;;;;;;9.57;4.13;;;14.70;99.90;;;;;;4930052;29;20459;-74
2022/08/28 05:31:21;;;;;;;8.47;3.43;;;14.70;99.90;;;;;;4925151;29;21068;-74
2022/08/28 05:34:24;;;;;;;4.80;3.03;;;14.70;99.90;;;;;;4926564;29;20464;-74
2022/08/28 05:37:27;;;;;;;;;;;;;;;;;;;;;
2022/08/28 05:40:42;;;;;;;6.63;4.00;;;14.80;99.90;;;;;;4927974;28;20834;-74
2022/08/28 05:43:49;;;;;;;13.90;4.00;;;14.80;99.90;;;;;;4925436;29;20460;-75
2022/08/28 05:46:51;;;;;;;8.27;3.20;;;14.80;99.90;;;;;;4922618;29;20468;-75
2022/08/28 05:49:51;;;;;;;8.57;3.60;;;14.90;99.90;;;;;;4928305;29;21231;-74
2022/08/28 05:52:52;;;;;;;7.40;3.90;;;14.90;99.90;;;;;;4926484;29;20833;-74
2022/08/28 05:56:05;;;;;;;6.37;3.33;;;14.90;99.90;;;;;;4927269;29;20539;-74
2022/08/28 05:59:10;;;;;;;8.90;3.10;;;15.00;99.90;;;;;;4928933;29;20539;-74
2022/08/28 06:02:15;;;;;;;7.80;3.10;;;15.00;99.90;;;;;;4917825;29;20456;-74
2022/08/28 06:05:06;;;;;;;8.13;4.40;;;15.00;99.90;;;;;;4909265;29;20856;-74
2022/08/28 06:07:59;;;;;;;8.03;3.23;;;15.00;99.90;;;;;;4912374;29;20464;-74
2022/08/28 06:10:50;;;;;;;9.40;3.47;;;15.10;99.90;;;;;;4921768;29;20511;-74
2022/08/28 06:13:43;;;;;;;5.77;3.57;;;15.20;99.90;;;;;;4925512;29;20547;-74
2022/08/28 06:16:33;;;;;;;8.93;3.73;;;15.20;99.90;;;;;;4926915;29;20488;-74
2022/08/28 06:19:23;;;;;;;7.10;3.00;;;15.20;99.90;;;;;;4916344;29;20835;-74
2022/08/28 06:22:14;;;;;;;6.97;3.80;;;15.20;99.90;;;;;;4924759;29;20510;-74
2022/08/28 06:25:02;;;;;;;8.30;3.53;;;15.30;99.90;;;;;;4924891;29;20623;-74
2022/08/28 06:27:55;;;;;;;7.93;3.50;;;15.40;99.90;;;;;;4927590;29;20507;-74
2022/08/28 06:30:46;;;;;;;8.50;3.23;;;15.40;99.90;;;;;;4921359;29;20518;-74
2022/08/28 06:33:55;;;;;;;8.13;2.87;;;15.40;99.90;;;;;;4912470;29;20456;-76
2022/08/28 06:36:46;;;;;;;7.23;3.13;;;15.50;99.90;;;;;;4918259;29;20488;-75
2022/08/28 06:39:47;;;;;;;8.67;3.83;;;15.60;99.90;;;;;;4919080;29;20557;-74
2022/08/28 06:42:36;;;;;;;8.70;3.97;;;15.70;99.90;;;;;;4916550;29;20667;-74
2022/08/28 06:45:24;;;;;;;7.20;2.63;;;15.70;99.90;;;;;;4915160;29;20671;-72
2022/08/28 06:48:18;;;;;;;5.00;2.47;;;15.70;99.90;;;;;;4920963;29;20464;-72
2022/08/28 06:51:09;;;;;;;5.40;3.00;;;15.80;99.90;;;;;;4921255;29;20585;-71
2022/08/28 06:53:57;;;;;;;8.80;3.37;;;15.90;99.90;;;;;;4918265;29;20568;-71
2022/08/28 06:56:46;;;;;;;6.60;3.03;;;16.00;99.90;;;;;;4919259;29;20498;-71
2022/08/28 06:59:34;;;;;;;7.10;3.30;;;16.10;99.90;;;;;;4927080;29;20460;-71
2022/08/28 07:02:26;;;;;;;8.17;3.27;;;16.20;99.90;;;;;;4918152;29;20535;-71
2022/08/28 07:05:17;;;;;;;7.37;3.20;;;16.30;99.90;;;;;;4921647;29;20571;-72
2022/08/28 07:08:06;;;;;;;4.57;2.40;;;16.40;99.90;;;;;;4925116;29;21423;-72
2022/08/28 07:10:55;;;;;;;7.03;3.30;;;16.50;99.90;;;;;;4930923;29;20463;-71
2022/08/28 07:13:46;;;;;;;6.63;2.90;;;16.60;99.90;;;;;;4923975;28;20506;-71
2022/08/28 07:16:37;;;;;;;9.90;3.47;;;16.60;99.90;;;;;;4909147;29;20475;-71
2022/08/28 07:19:26;;;;;;;6.40;2.90;;;16.70;99.90;;;;;;4919362;29;20555;-71
2022/08/28 07:22:15;;;;;;;6.77;2.97;;;16.80;99.90;;;;;;4926664;29;20543;-71
2022/08/28 07:25:05;;;;;;;5.03;2.40;;;16.90;99.90;;;;;;4923206;29;20460;-71
2022/08/28 07:27:53;;;;;;;8.00;3.00;;;16.90;99.90;;;;;;4929410;29;20468;-71
2022/08/28 07:30:41;;;;;;;6.77;3.10;;;17.00;99.90;;;;;;4930594;29;20547;-72
2022/08/28 07:33:30;;;;;;;7.13;2.77;;;17.10;99.90;;;;;;4918117;29;20488;-71
2022/08/28 07:36:21;;;;;;;7.30;3.10;;;17.10;99.90;;;;;;4928771;29;21087;-71
2022/08/28 07:39:18;;;;;;;4.30;2.70;;;17.20;99.90;;;;;;4925246;28;20476;-72
2022/08/28 07:42:07;;;;;;;5.43;2.57;;;17.30;99.90;;;;;;4913384;29;20466;-72
2022/08/28 07:44:56;;;;;;;5.53;2.97;;;17.30;99.90;;;;;;4924196;29;20452;-72
2022/08/28 07:47:44;;;;;;;7.17;3.10;;;17.40;99.90;;;;;;4924888;29;20459;-74
2022/08/28 07:50:32;;;;;;;8.40;3.03;;;17.50;99.90;;;;;;4925041;29;21134;-73
2022/08/28 07:53:21;;;;;;;6.27;2.83;;;17.50;99.90;;;;;;4927317;28;20558;-74
2022/08/28 07:56:11;;;;;;;6.33;3.20;;;17.60;99.90;;;;;;4925891;29;20587;-75
2022/08/28 07:59:02;;;;;;;6.17;2.83;;;17.50;99.90;;;;;;4928350;29;20480;-74
2022/08/28 08:01:52;;;;;;;6.40;2.73;;;17.60;99.90;;;;;;4926095;29;20550;-73
2022/08/28 08:04:43;;;;;;;4.63;2.87;;;17.60;99.90;;;;;;4927791;29;20456;-74
2022/08/28 08:07:32;;;;;;;5.23;2.50;;;17.70;99.90;;;;;;4925108;29;20456;-74
2022/08/28 08:10:21;;;;;;;9.13;3.03;;;17.80;99.90;;;;;;4926908;29;20542;-72
2022/08/28 08:13:22;;;;;;;6.60;2.70;;;17.90;99.90;;;;;;4926174;29;20476;-72
2022/08/28 08:16:13;;;;;;;9.57;2.90;;;18.00;99.90;;;;;;4923372;29;20527;-72
2022/08/28 08:19:03;;;;;;;8.63;2.60;;;18.10;99.90;;;;;;4924487;29;20460;-72
2022/08/28 08:21:52;;;;;;;8.67;2.73;;;18.10;99.90;;;;;;4927256;29;20455;-73
2022/08/28 08:24:42;;;;;;;4.67;2.87;;;18.20;99.90;;;;;;4925702;29;21289;-72
2022/08/28 08:27:31;;;;;;;7.03;3.10;;;18.20;99.90;;;;;;4928498;29;20504;-72
2022/08/28 08:30:22;;;;;;;9.17;3.07;;;18.30;99.90;;;;;;4921749;29;20464;-72
2022/08/28 08:33:10;;;;;;;6.63;3.43;;;18.40;99.90;;;;;;4927108;29;20500;-72
2022/08/28 08:35:59;;;;;;;9.70;2.80;;;18.40;99.90;;;;;;4930283;29;20562;-72
2022/08/28 08:38:47;;;;;;;12.50;3.10;;;18.50;99.90;;;;;;4926479;29;20994;-72
2022/08/28 08:41:49;;;;;;;6.97;2.97;;;18.50;99.90;;;;;;4926994;29;20487;-73
2022/08/28 08:44:41;;;;;;;5.63;3.27;;;18.60;99.90;;;;;;4925828;29;20553;-74
2022/08/28 08:47:38;;;;;;;4.23;2.73;;;18.60;99.90;;;;;;4922814;28;20551;-74
2022/08/28 08:50:28;;;;;;;4.50;2.90;;;18.60;99.90;;;;;;4924857;29;20618;-74
2022/08/28 08:53:27;;;;;;;5.10;2.70;;;18.70;99.90;;;;;;4929344;28;20455;-74
2022/08/28 08:56:16;;;;;;;4.63;2.77;;;18.70;99.90;;;;;;4927130;29;20632;-74
2022/08/28 08:59:09;;;;;;;7.70;3.30;;;18.70;99.90;;;;;;4928243;29;20475;-74
2022/08/28 09:02:04;;;;;;;5.60;3.30;;;18.80;99.90;;;;;;4924986;28;20535;-74
2022/08/28 09:05:01;;;;;;;5.30;2.80;;;18.90;99.90;;;;;;4926298;28;20527;-74
2022/08/28 09:07:55;;;;;;;5.37;2.67;;;18.90;99.90;;;;;;4930030;29;20531;-74
2022/08/28 09:10:53;;;;;;;8.70;3.20;;;19.00;99.90;;;;;;4930057;29;20555;-74
2022/08/28 09:13:50;;;;;;;6.97;2.80;;;19.00;99.90;;;;;;4926005;29;20689;-73
2022/08/28 09:16:42;;;;;;;4.30;2.60;;;19.10;99.90;;;;;;4926739;29;20974;-74
2022/08/28 09:19:30;;;;;;;5.20;2.60;;;19.10;99.90;;;;;;4933059;29;20550;-74
2022/08/28 09:22:21;;;;;;;4.03;2.40;;;19.10;99.90;;;;;;4933086;29;20471;-74
2022/08/28 09:25:12;;;;;;;6.83;2.83;;;19.10;99.90;;;;;;4933373;29;20578;-74
2022/08/28 09:28:08;;;;;;;5.20;2.47;;;19.20;99.90;;;;;;4924737;29;20462;-74
2022/08/28 09:31:03;;;;;;;5.50;2.90;;;19.20;99.90;;;;;;4935670;29;20602;-73
2022/08/28 09:33:52;;;;;;;7.50;2.60;;;19.30;99.90;;;;;;4933131;29;20535;-74
2022/08/28 09:36:41;;;;;;;3.57;2.13;;;19.40;99.90;;;;;;4933656;29;20498;-73
2022/08/28 09:39:34;;;;;;;6.97;2.23;;;19.50;99.90;;;;;;4928995;29;21036;-74
2022/08/28 09:45:30;;;;;;;6.47;2.47;;;19.80;99.90;;;;;;4931289;29;20480;-74
2022/08/28 09:48:20;;;;;;;6.60;2.60;;;19.80;99.90;;;;;;4932529;29;20496;-74
2022/08/28 09:51:10;;;;;;;5.60;3.07;;;19.80;99.90;;;;;;4932010;29;20594;-75
2022/08/28 09:54:06;;;;;;;8.00;2.97;;;19.70;99.90;;;;;;4932117;28;21043;-74
2022/08/28 09:56:56;;;;;;;3.80;2.10;;;19.80;99.90;;;;;;4928956;29;20491;-74
2022/08/28 09:59:44;;;;;;;6.83;3.03;;;19.80;99.90;;;;;;4932286;29;20857;-75
2022/08/28 10:02:40;;;;;;;6.73;3.00;;;19.90;99.90;;;;;;4928064;29;20547;-74
2022/08/28 10:05:40;;;;;;;7.30;3.00;;;19.90;99.90;;;;;;4928539;28;20488;-75
2022/08/28 10:08:42;;;;;;;3.80;2.40;;;19.90;99.90;;;;;;4930407;29;20504;-75
2022/08/28 10:11:37;;;;;;;7.43;2.90;;;20.00;99.90;;;;;;4931918;28;20491;-75
2022/08/28 10:14:44;;;;;;;5.53;2.70;;;20.10;99.90;;;;;;4929059;29;20452;-74
2022/08/28 10:17:44;;;;;;;5.70;2.80;;;20.10;99.90;;;;;;4927325;29;20524;-75
2022/08/28 10:20:45;;;;;;;4.23;2.67;;;20.10;99.90;;;;;;4928344;29;20519;-75
2022/08/28 10:23:41;;;;;;;4.40;2.40;;;20.10;99.90;;;;;;4925877;29;20986;-74
2022/08/28 10:26:36;;;;;;;7.33;2.63;;;20.10;99.90;;;;;;4925436;29;20567;-75
2022/08/28 10:29:38;;;;;;;4.80;2.67;;;20.10;99.90;;;;;;4924495;29;20468;-75
2022/08/28 10:32:48;;;;;;;5.67;3.07;;;20.10;99.90;;;;;;4931674;29;20505;-75
2022/08/28 10:35:48;;;;;;;8.53;2.80;;;20.10;99.90;;;;;;4928827;29;20516;-75
2022/08/28 10:38:40;;;;;;;6.33;3.20;;;20.10;99.90;;;;;;4925324;29;20601;-72
2022/08/28 10:41:37;;;;;;;7.40;3.20;;;20.20;99.90;;;;;;4929411;29;21144;-73
2022/08/28 10:44:40;;;;;;;9.00;3.33;;;20.20;99.90;;;;;;4930134;29;21210;-75
2022/08/28 10:47:37;;;;;;;5.20;2.73;;;20.10;99.90;;;;;;4927956;29;20464;-74
2022/08/28 10:50:29;;;;;;;4.00;2.73;;;20.10;99.90;;;;;;4923667;29;20460;-74
2022/08/28 10:53:23;;;;;;;9.23;3.13;;;20.00;99.90;;;;;;4923577;29;20510;-75
2022/08/28 10:56:17;;;;;;;7.87;3.40;;;20.00;99.90;;;;;;4924360;29;20579;-73
2022/08/28 10:59:05;;;;;;;8.93;3.37;;;20.00;99.90;;;;;;4929372;29;20578;-75
2022/08/28 11:01:54;;;;;;;5.93;3.70;;;20.00;99.90;;;;;;4925616;28;20459;-74
2022/08/28 11:04:46;;;;;;;7.00;3.53;;;20.00;99.90;;;;;;4926278;29;20468;-74
2022/08/28 11:07:38;;;;;;;5.30;3.03;;;20.00;99.90;;;;;;4923977;29;20451;-74
2022/08/28 11:10:49;;;;;;;4.73;3.13;;;19.90;99.90;;;;;;4932218;28;20460;-74
2022/08/28 11:13:51;;;;;;;4.07;2.70;;;20.00;99.90;;;;;;4930252;29;20456;-75
2022/08/28 11:16:45;;;;;;;7.90;3.50;;;20.00;99.90;;;;;;4926299;29;20524;-74
2022/08/28 11:20:00;;;;;;;5.83;3.30;;;20.00;99.90;;;;;;4931887;29;20483;-74
2022/08/28 11:22:53;;;;;;;6.00;3.83;;;20.10;99.90;;;;;;4926991;29;20516;-75
2022/08/28 11:25:45;;;;;;;6.00;3.70;;;20.20;99.90;;;;;;4926702;29;21014;-75
2022/08/28 11:28:44;;;;;;;6.07;3.60;;;20.20;99.90;;;;;;4929818;29;20547;-74
2022/08/28 11:31:39;;;;;;;6.50;3.40;;;20.30;99.90;;;;;;4930389;29;20612;-75
2022/08/28 11:34:57;;;;;;;6.93;3.37;;;20.40;99.90;;;;;;4927700;28;21186;-72
2022/08/28 11:37:48;;;;;;;4.87;3.00;;;20.50;99.90;;;;;;4924658;29;20471;-73
2022/08/28 11:40:55;;;;;;;6.87;3.03;;;20.40;99.90;;;;;;4926786;29;20939;-75
2022/08/28 11:43:46;;;;;;;7.33;3.20;;;20.40;99.90;;;;;;4923022;28;21108;-76
2022/08/28 11:46:37;;;;;;;4.67;3.63;;;20.50;99.90;;;;;;4929144;29;20957;-76
2022/08/28 11:49:42;;;;;;;8.17;3.27;;;20.50;99.90;;;;;;4929939;29;20508;-76
2022/08/28 11:52:42;;;;;;;7.17;3.10;;;20.50;99.90;;;;;;4927421;29;20463;-75
2022/08/28 11:55:53;;;;;;;4.87;2.70;;;20.40;99.90;;;;;;4927829;29;20574;-76
2022/08/28 11:58:50;;;;;;;4.97;2.77;;;20.30;99.90;;;;;;4929473;29;20674;-75
2022/08/28 12:01:39;;;;;;;6.27;3.50;;;20.30;99.90;;;;;;4930490;28;20492;-76
2022/08/28 12:04:41;;;;;;;6.53;3.43;;;20.30;99.90;;;;;;4931749;28;20595;-75
2022/08/28 12:07:36;;;;;;;6.73;2.93;;;20.20;99.90;;;;;;4914452;29;20468;-76
2022/08/28 12:10:54;;;;;;;5.30;2.90;;;20.30;99.90;;;;;;4924724;28;20452;-77
2022/08/28 12:13:49;;;;;;;5.57;3.10;;;20.50;99.90;;;;;;4917724;29;21238;-75
2022/08/28 12:17:11;;;;;;;4.77;3.40;;;20.70;99.90;;;;;;4915210;29;20613;-72
2022/08/28 12:20:09;;;;;;;6.50;3.00;;;20.80;99.90;;;;;;4920837;29;20562;-72
2022/08/28 12:23:00;;;;;;;4.03;3.13;;;20.70;99.90;;;;;;4916954;29;20634;-72
2022/08/28 12:25:58;;;;;;;4.60;3.50;;;20.80;99.90;;;;;;4927615;29;21015;-73
2022/08/28 12:28:54;;;;;;;6.00;3.23;;;20.80;99.90;;;;;;4910040;29;20547;-73
2022/08/28 12:32:11;;;;;;;6.13;3.43;;;20.60;99.90;;;;;;4907345;28;20532;-72
2022/08/28 12:35:16;;;;;;;5.00;3.43;;;20.80;99.90;;;;;;4914264;29;20471;-72
2022/08/28 12:38:08;;;;;;;4.47;2.90;;;21.00;99.90;;;;;;4916459;29;20455;-74
2022/08/28 12:40:56;;;;;;;8.50;3.60;;;21.20;99.90;;;;;;4916161;29;20475;-73
2022/08/28 12:43:48;;;;;;;5.30;3.33;;;21.30;99.90;;;;;;4920059;29;20471;-73
2022/08/28 12:46:41;;;;;;;6.37;3.53;;;21.20;99.90;;;;;;4912062;29;21091;-73
2022/08/28 12:49:33;;;;;;;5.50;3.27;;;21.10;99.90;;;;;;4921206;29;21072;-75
2022/08/28 12:52:25;;;;;;;4.50;2.93;;;21.00;99.90;;;;;;4897875;29;20483;-74
2022/08/28 12:55:15;;;;;;;7.67;3.57;;;21.10;99.90;;;;;;4917131;29;20480;-72
2022/08/28 12:58:12;;;;;;;5.10;3.40;;;21.00;99.90;;;;;;4919089;29;20471;-74
2022/08/28 13:01:06;;;;;;;7.13;3.47;;;21.00;99.90;;;;;;4912383;29;20963;-73
2022/08/28 13:03:58;;;;;;;5.80;3.00;;;20.90;99.90;;;;;;4913211;29;20456;-74
2022/08/28 13:06:47;;;;;;;6.23;2.90;;;20.80;99.90;;;;;;4918133;29;22523;-73
2022/08/28 13:09:35;;;;;;;4.50;3.10;;;20.90;99.90;;;;;;4920710;29;20464;-73
2022/08/28 13:12:28;;;;;;;7.40;3.60;;;21.10;99.90;;;;;;4928467;29;21188;-73
2022/08/28 13:15:46;;;;;;;3.87;2.70;;;21.30;99.90;;;;;;4926557;29;20495;-73
2022/08/28 13:18:43;;;;;;;6.03;3.30;;;21.40;99.90;;;;;;4925850;29;21005;-73
2022/08/28 13:21:34;;;;;;;7.53;4.60;;;21.40;99.90;;;;;;4926272;29;20455;-71
2022/08/28 13:24:27;;;;;;;7.30;3.37;;;21.40;99.90;;;;;;4924859;29;20565;-73
2022/08/28 13:27:22;;;;;;;7.80;3.80;;;21.10;99.90;;;;;;4929500;29;20693;-73
2022/08/28 13:30:23;;;;;;;7.00;3.40;;;21.00;99.90;;;;;;4932390;28;21076;-73
2022/08/28 13:33:20;;;;;;;7.30;3.33;;;21.00;99.90;;;;;;4924143;28;20467;-71
2022/08/28 13:36:23;;;;;;;5.37;3.17;;;21.00;99.90;;;;;;4925839;29;21143;-71
2022/08/28 13:39:12;;;;;;;7.87;3.37;;;20.90;99.90;;;;;;4928190;29;20892;-74
2022/08/28 13:42:06;;;;;;;6.33;3.27;;;20.90;99.90;;;;;;4927645;29;20611;-75
2022/08/28 13:44:55;;;;;;;5.40;3.03;;;20.80;99.90;;;;;;4926569;29;20475;-75
2022/08/28 13:47:47;;;;;;;7.63;3.60;;;20.80;99.90;;;;;;4931774;28;20448;-75
2022/08/28 13:50:37;;;;;;;6.83;3.60;;;20.80;99.90;;;;;;4926701;29;21047;-75
2022/08/28 13:53:25;;;;;;;5.30;3.50;;;20.80;99.90;;;;;;4928119;29;20468;-76
2022/08/28 13:56:14;;;;;;;6.40;3.10;;;20.80;99.90;;;;;;4920992;29;20726;-76
2022/08/28 13:59:05;;;;;;;6.80;3.60;;;20.70;99.90;;;;;;4928034;29;20476;-76
2022/08/28 14:05:06;;;;;;;3.67;2.70;;;20.80;99.90;;;;;;4910089;29;21003;-73
2022/08/28 14:07:56;;;;;;;5.20;3.63;;;20.70;99.90;;;;;;4911036;29;20452;-73
2022/08/28 14:10:45;;;;;;;6.83;3.43;;;20.70;99.90;;;;;;4913299;28;20460;-72
2022/08/28 14:13:34;;;;;;;5.40;2.97;;;20.80;99.90;;;;;;4921094;29;21095;-74
2022/08/28 14:16:22;;;;;;;5.13;3.50;;;20.80;99.90;;;;;;4916971;29;20515;-75
2022/08/28 14:19:11;;;;;;;6.90;3.33;;;20.90;99.90;;;;;;4927792;28;20487;-73
2022/08/28 14:22:01;;;;;;;5.80;3.20;;;20.90;99.90;;;;;;4919815;29;20506;-73
2022/08/28 14:24:49;;;;;;;6.83;3.53;;;20.90;99.90;;;;;;4919488;29;20588;-73
2022/08/28 14:27:38;;;;;;;3.10;2.40;;;21.00;99.90;;;;;;4911711;29;20464;-73
2022/08/28 14:30:26;;;;;;;4.83;3.20;;;21.00;99.90;;;;;;4916290;29;20464;-73
2022/08/28 14:33:18;;;;;;;4.90;2.83;;;21.00;99.90;;;;;;4910151;28;20554;-73
2022/08/28 14:36:14;;;;;;;4.07;2.93;;;21.00;99.90;;;;;;4920226;29;20546;-72
2022/08/28 14:39:06;;;;;;;5.33;3.30;;;21.00;99.90;;;;;;4916805;29;20472;-72
2022/08/28 14:41:55;;;;;;;5.17;3.17;;;21.00;99.90;;;;;;4922624;29;20460;-72
2022/08/28 14:44:43;;;;;;;4.33;3.50;;;21.00;99.90;;;;;;4906321;29;20472;-72
2022/08/28 14:47:31;;;;;;;4.43;2.87;;;21.00;99.90;;;;;;4911689;29;20471;-72
2022/08/28 14:50:21;;;;;;;4.17;3.10;;;21.00;99.90;;;;;;4916575;28;20532;-75
2022/08/28 14:53:11;;;;;;;4.60;2.77;;;21.00;99.90;;;;;;4920096;29;20461;-74
2022/08/28 14:56:01;;;;;;;4.17;2.77;;;20.90;99.90;;;;;;4918939;29;20476;-72
2022/08/28 14:58:52;;;;;;;6.30;2.80;;;20.90;99.90;;;;;;4919178;29;20459;-75
2022/08/28 15:01:41;;;;;;;5.40;3.40;;;20.90;99.90;;;;;;4925838;29;20468;-75
2022/08/28 15:04:33;;;;;;;5.83;3.27;;;20.90;99.90;;;;;;4913655;29;20464;-74
2022/08/28 15:07:22;;;;;;;6.20;3.63;;;20.80;99.90;;;;;;4913244;29;20456;-74
2022/08/28 15:10:12;;;;;;;4.67;3.13;;;20.60;99.90;;;;;;4912975;29;20547;-75
2022/08/28 15:13:01;;;;;;;5.57;3.50;;;20.50;99.90;;;;;;4919431;29;20472;-74
2022/08/28 15:16:02;;;;;;;4.83;3.47;;;20.50;99.90;;;;;;4915404;29;21450;-74
2022/08/28 15:18:51;;;;;;;6.13;2.93;;;20.40;99.90;;;;;;4924072;29;20456;-74
2022/08/28 15:21:44;;;;;;;7.40;3.57;;;20.50;99.90;;;;;;4923272;28;20463;-74
2022/08/28 15:24:33;;;;;;;5.40;3.10;;;20.50;99.90;;;;;;4913614;29;20547;-75
2022/08/28 15:27:22;;;;;;;4.83;3.17;;;20.50;99.90;;;;;;4918929;29;21059;-73
2022/08/28 15:30:12;;;;;;;6.87;3.33;;;20.40;99.90;;;;;;4914226;29;20460;-73
2022/08/28 15:33:01;;;;;;;7.20;3.03;;;20.40;99.90;;;;;;4920176;28;20464;-76
2022/08/28 15:35:49;;;;;;;6.33;3.10;;;20.40;99.90;;;;;;4925090;28;20483;-75
2022/08/28 15:41:41;;;;;;;5.40;3.50;;;20.40;99.90;;;;;;4922837;29;20476;-75
2022/08/28 15:44:30;;;;;;;7.33;3.67;;;20.20;99.90;;;;;;4915331;29;20844;-76
2022/08/28 15:47:19;;;;;;;6.57;3.53;;;20.20;99.90;;;;;;4917877;29;20987;-76
2022/08/28 15:50:09;;;;;;;6.90;3.40;;;20.10;99.90;;;;;;4917456;29;21011;-75
2022/08/28 15:52:58;;;;;;;4.73;3.03;;;20.10;99.90;;;;;;4912653;29;20463;-75
2022/08/28 15:55:49;;;;;;;5.40;3.40;;;20.20;99.90;;;;;;4913240;29;20991;-75
2022/08/28 15:58:37;;;;;;;6.30;3.70;;;20.20;99.90;;;;;;4907285;29;20498;-75
2022/08/28 16:01:26;;;;;;;4.60;3.23;;;20.30;99.90;;;;;;4924061;29;20623;-75
2022/08/28 16:04:16;;;;;;;5.20;3.23;;;20.20;99.90;;;;;;4921581;29;21055;-74
2022/08/28 16:07:04;;;;;;;4.50;3.30;;;20.20;99.90;;;;;;4922623;29;20475;-75
2022/08/28 16:09:53;;;;;;;5.20;3.07;;;20.10;99.90;;;;;;4920942;29;20523;-74
2022/08/28 16:12:41;;;;;;;4.23;2.70;;;20.20;99.90;;;;;;4925017;29;20456;-74
2022/08/28 16:15:32;;;;;;;9.43;3.13;;;20.20;99.90;;;;;;4918074;29;20496;-75
2022/08/28 16:18:20;;;;;;;4.40;3.20;;;20.10;99.90;;;;;;4908694;29;21047;-74
2022/08/28 16:21:11;;;;;;;6.63;3.20;;;20.10;99.90;;;;;;4907514;29;21566;-74
2022/08/28 16:24:00;;;;;;;7.20;3.47;;;20.10;99.90;;;;;;4911510;29;20448;-73